Terminal Aerodrome Forecast
Issued by NWS Springfield, MO

Home | Current Version | Previous Version | Text Only | Print | Product List | Glossary On
Versions: 1 2 3 4 5 6 7 8 9 10 11 12 13
000
FTUS43 KSGF 191721
TAFSGF
TAF
KSGF 191721Z 1918/2018 20008G15KT P6SM SKC
     FM192100 18006KT P6SM SKC
     FM200800 17006KT P6SM FEW250 WS020/20030KT
     FM201300 16010KT P6SM SCT250=

USA.gov is the U.S. government's official web portal to all federal, state and local government web resources and services.